Time;durP1;ratioP1;P1;durP2;ratioP2;P2;SDS_P1;SDS_P2;PMS_P1;PMS_P2;Temp;Humidity;BMP_temperature;BMP_pressure;BME280_temperature;BME280_humidity;BME280_pressure;Samples;Min_cycle;Max_cycle;Signal;HPM_P1;HPM_P2
2023/07/13 00:02:24;;;;;;;2.95;1.75;;;19.70;99.90;;;;;;5070868;28;20035;-77
2023/07/13 00:04:50;;;;;;;2.58;2.15;;;19.60;99.90;;;;;;5070834;28;20017;-77
2023/07/13 00:07:19;;;;;;;2.10;2.00;;;19.50;99.90;;;;;;5073966;28;20093;-76
2023/07/13 00:09:46;;;;;;;1.75;1.65;;;19.50;99.90;;;;;;5073274;28;20024;-76
2023/07/13 00:12:27;;;;;;;1.65;1.55;;;19.60;99.90;;;;;;5073818;28;20048;-77
2023/07/13 00:14:53;;;;;;;1.17;1.10;;;19.50;99.90;;;;;;5072667;28;20370;-77
2023/07/13 00:17:18;;;;;;;1.88;1.73;;;19.50;99.90;;;;;;5067948;28;20070;-77
2023/07/13 00:19:45;;;;;;;2.33;1.50;;;19.50;99.90;;;;;;5073263;28;20021;-76
2023/07/13 00:22:11;;;;;;;1.35;1.25;;;19.60;99.90;;;;;;5073865;28;20035;-75
2023/07/13 00:24:41;;;;;;;1.40;1.30;;;19.60;99.90;;;;;;5073544;28;20024;-77
2023/07/13 00:27:08;;;;;;;2.05;1.45;;;19.70;99.90;;;;;;5076482;28;20078;-77
2023/07/13 00:29:34;;;;;;;1.38;1.27;;;19.70;99.90;;;;;;5076653;28;20051;-76
2023/07/13 00:31:59;;;;;;;1.50;1.40;;;19.70;99.90;;;;;;5079710;28;20021;-77
2023/07/13 00:34:26;;;;;;;1.00;1.00;;;19.80;99.90;;;;;;5073335;28;20035;-77
2023/07/13 00:36:51;;;;;;;1.40;1.30;;;19.80;99.90;;;;;;5072064;28;20039;-77
2023/07/13 00:39:17;;;;;;;1.40;1.30;;;19.70;99.90;;;;;;5071473;28;20104;-77
2023/07/13 00:41:44;;;;;;;1.20;1.20;;;19.70;99.90;;;;;;5065078;28;20088;-76
2023/07/13 00:44:15;;;;;;;1.40;1.30;;;19.70;99.90;;;;;;5075200;28;20043;-76
2023/07/13 00:46:41;;;;;;;1.30;1.10;;;19.60;99.90;;;;;;5073358;28;20520;-78
2023/07/13 00:49:20;;;;;;;1.20;1.10;;;19.60;99.90;;;;;;5071883;28;20283;-77
2023/07/13 00:51:51;;;;;;;1.17;1.17;;;19.60;99.90;;;;;;5073765;28;20484;-77
2023/07/13 00:54:24;;;;;;;0.82;0.82;;;19.60;99.90;;;;;;5072056;28;20025;-77
2023/07/13 00:56:53;;;;;;;1.65;1.55;;;19.60;99.90;;;;;;5068917;28;20029;-75
2023/07/13 00:59:20;;;;;;;1.33;1.33;;;19.60;99.90;;;;;;5071119;28;20017;-77
2023/07/13 01:01:47;;;;;;;1.27;1.20;;;19.60;99.90;;;;;;5067702;28;20501;-76
2023/07/13 01:04:14;;;;;;;1.95;1.10;;;19.60;99.90;;;;;;5072517;28;20033;-77
2023/07/13 01:06:40;;;;;;;1.30;1.02;;;19.60;99.90;;;;;;5069429;28;20035;-77
2023/07/13 01:09:07;;;;;;;1.10;1.00;;;19.60;99.90;;;;;;5073436;28;20036;-76
2023/07/13 01:11:34;;;;;;;1.23;1.20;;;19.60;99.90;;;;;;5069334;28;20018;-76
2023/07/13 01:14:01;;;;;;;1.42;1.33;;;19.50;99.90;;;;;;5074116;28;20048;-75
2023/07/13 01:16:30;;;;;;;1.30;1.15;;;19.50;99.90;;;;;;5073015;28;20043;-76
2023/07/13 01:18:59;;;;;;;1.20;1.10;;;19.40;99.90;;;;;;5072257;28;20026;-77
2023/07/13 01:21:27;;;;;;;1.58;1.40;;;19.40;99.90;;;;;;5073757;28;20025;-77
2023/07/13 01:23:52;;;;;;;1.25;1.25;;;19.40;99.90;;;;;;5071850;28;20039;-78
2023/07/13 01:26:18;;;;;;;1.20;1.10;;;19.40;99.90;;;;;;5064433;28;20454;-77
2023/07/13 01:28:44;;;;;;;1.20;1.20;;;19.40;99.90;;;;;;5075159;28;20029;-77
2023/07/13 01:31:10;;;;;;;1.60;1.40;;;19.40;99.90;;;;;;5072752;28;20025;-76
2023/07/13 01:33:39;;;;;;;0.98;0.98;;;19.30;99.90;;;;;;5072456;28;20012;-77
2023/07/13 01:36:05;;;;;;;2.03;0.80;;;19.30;99.90;;;;;;5071902;28;20017;-77
2023/07/13 01:38:33;;;;;;;1.02;1.02;;;19.30;99.90;;;;;;5072417;28;20028;-78
2023/07/13 01:40:59;;;;;;;1.70;1.20;;;19.30;99.90;;;;;;5071577;28;20072;-77
2023/07/13 01:43:25;;;;;;;0.82;0.80;;;19.30;99.90;;;;;;5061209;28;20044;-76
2023/07/13 01:45:50;;;;;;;1.20;1.10;;;19.30;99.90;;;;;;5054664;28;20468;-75
2023/07/13 01:48:16;;;;;;;1.40;1.30;;;19.30;99.90;;;;;;5064557;28;20545;-77
2023/07/13 01:50:42;;;;;;;1.10;1.10;;;19.30;99.90;;;;;;5072882;28;20120;-76
2023/07/13 01:53:08;;;;;;;1.25;1.15;;;19.40;99.90;;;;;;5071684;28;20021;-76
2023/07/13 01:55:35;;;;;;;1.15;1.08;;;19.30;99.90;;;;;;5073565;28;20035;-77
2023/07/13 01:58:01;;;;;;;3.30;2.17;;;19.20;99.90;;;;;;5076068;28;20029;-77
2023/07/13 02:00:26;;;;;;;4.10;2.20;;;19.20;99.90;;;;;;5076983;28;20037;-76
2023/07/13 02:02:52;;;;;;;3.08;2.60;;;19.20;99.90;;;;;;5076508;28;20039;-76
2023/07/13 02:05:18;;;;;;;7.13;2.53;;;19.20;99.90;;;;;;5077610;28;20497;-76
2023/07/13 02:07:44;;;;;;;2.42;1.90;;;19.30;99.90;;;;;;5071710;28;20036;-76
2023/07/13 02:10:11;;;;;;;2.15;2.05;;;19.20;99.90;;;;;;5074805;28;20458;-77
2023/07/13 02:12:37;;;;;;;2.80;1.92;;;19.20;99.90;;;;;;5073021;28;20055;-76
2023/07/13 02:15:04;;;;;;;2.00;1.80;;;19.20;99.90;;;;;;5073743;28;20025;-76
2023/07/13 02:17:30;;;;;;;1.60;1.50;;;19.10;99.90;;;;;;5074307;28;20028;-75
2023/07/13 02:19:55;;;;;;;2.03;1.80;;;19.10;99.90;;;;;;5075385;28;20359;-76
2023/07/13 02:22:21;;;;;;;1.60;1.50;;;19.10;99.90;;;;;;5069692;28;20107;-76
2023/07/13 02:24:48;;;;;;;1.70;1.60;;;19.10;99.90;;;;;;5063825;28;20024;-76
2023/07/13 02:27:13;;;;;;;1.10;1.10;;;19.10;99.90;;;;;;5073981;28;20025;-76
2023/07/13 02:29:39;;;;;;;1.55;1.45;;;19.20;99.90;;;;;;5072208;28;20025;-76
2023/07/13 02:32:05;;;;;;;1.80;1.70;;;19.20;99.90;;;;;;5073583;28;20449;-77
2023/07/13 02:34:31;;;;;;;1.70;1.58;;;19.20;99.90;;;;;;5073691;28;20047;-76
2023/07/13 02:36:56;;;;;;;1.85;1.75;;;19.20;99.90;;;;;;5069192;28;20411;-77
2023/07/13 02:39:22;;;;;;;2.00;1.80;;;19.30;99.90;;;;;;5069876;28;20040;-76
2023/07/13 02:41:48;;;;;;;2.95;2.00;;;19.30;99.90;;;;;;5072147;28;20044;-76
2023/07/13 02:44:15;;;;;;;2.47;2.10;;;19.30;99.90;;;;;;5073131;28;20028;-76
2023/07/13 02:46:40;;;;;;;2.55;2.35;;;19.30;99.90;;;;;;5073460;28;20016;-75
2023/07/13 02:49:06;;;;;;;3.95;3.00;;;19.30;99.90;;;;;;5073913;28;20426;-76
2023/07/13 02:51:33;;;;;;;2.97;2.65;;;19.30;99.90;;;;;;5072857;28;20039;-75
2023/07/13 02:54:00;;;;;;;3.25;2.40;;;19.30;99.90;;;;;;5073419;28;20016;-76
2023/07/13 02:56:27;;;;;;;6.93;3.20;;;19.20;99.90;;;;;;5074042;28;20408;-76
2023/07/13 02:58:54;;;;;;;3.78;2.70;;;19.20;99.90;;;;;;5072388;28;20031;-75
2023/07/13 03:01:20;;;;;;;3.53;3.00;;;19.10;99.90;;;;;;5073426;28;20073;-74
2023/07/13 03:03:46;;;;;;;7.78;3.47;;;19.10;99.90;;;;;;5073232;28;20036;-75
2023/07/13 03:06:13;;;;;;;3.63;3.30;;;;;;;;;;5072880;28;20055;-73
2023/07/13 03:08:40;;;;;;;7.30;3.15;;;18.60;99.90;;;;;;5074691;28;20029;-75
2023/07/13 03:11:12;;;;;;;3.88;2.50;;;18.40;99.90;;;;;;5074209;28;20017;-74
2023/07/13 03:13:39;;;;;;;4.00;2.40;;;18.10;99.90;;;;;;5062667;28;20036;-75
2023/07/13 03:16:05;;;;;;;2.55;2.35;;;18.00;99.90;;;;;;5073503;28;20027;-75
2023/07/13 03:18:31;;;;;;;2.78;2.58;;;17.80;99.90;;;;;;5072659;28;20501;-75
2023/07/13 03:20:57;;;;;;;2.45;2.25;;;17.80;99.90;;;;;;5074971;28;20031;-76
2023/07/13 03:23:24;;;;;;;2.70;2.25;;;17.70;99.90;;;;;;5074152;28;20108;-75
2023/07/13 03:26:00;;;;;;;2.22;2.03;;;17.60;99.90;;;;;;5073405;28;20382;-75
2023/07/13 03:28:26;;;;;;;2.95;2.42;;;17.60;99.90;;;;;;5074107;28;20063;-74
2023/07/13 03:31:03;;;;;;;3.60;2.45;;;17.60;99.90;;;;;;5073843;28;20020;-76
2023/07/13 03:33:28;;;;;;;2.55;2.35;;;17.60;99.90;;;;;;5074203;28;20618;-76
2023/07/13 03:35:54;;;;;;;3.13;2.70;;;17.60;99.90;;;;;;5073261;28;20093;-75
2023/07/13 03:38:20;;;;;;;3.75;2.53;;;17.60;99.90;;;;;;5069335;28;20370;-76
2023/07/13 03:40:45;;;;;;;2.67;2.13;;;17.60;99.90;;;;;;5070519;28;20043;-75
2023/07/13 03:43:11;;;;;;;2.10;2.00;;;17.60;99.90;;;;;;5074534;28;20133;-75
2023/07/13 03:45:40;;;;;;;2.47;2.28;;;17.60;99.90;;;;;;5067067;28;20042;-72
2023/07/13 03:48:05;;;;;;;2.38;2.17;;;17.60;99.90;;;;;;5063929;28;20080;-74
2023/07/13 03:50:31;;;;;;;2.15;2.00;;;17.60;99.90;;;;;;5071485;28;20035;-74
2023/07/13 03:53:00;;;;;;;1.77;1.67;;;17.70;99.90;;;;;;5071556;28;20020;-73
2023/07/13 03:55:26;;;;;;;1.67;1.58;;;17.70;99.90;;;;;;5072532;28;20040;-72
2023/07/13 03:57:59;;;;;;;2.00;1.90;;;17.80;99.90;;;;;;5071025;28;20497;-75
2023/07/13 04:00:25;;;;;;;1.60;1.50;;;17.80;99.90;;;;;;5059110;28;20037;-76
2023/07/13 04:02:51;;;;;;;1.70;1.60;;;17.80;99.90;;;;;;5054368;28;20025;-76
2023/07/13 04:05:16;;;;;;;1.60;1.50;;;17.90;99.90;;;;;;5069164;28;20078;-76
2023/07/13 04:07:42;;;;;;;1.52;1.42;;;17.90;99.90;;;;;;5072651;28;20371;-75
2023/07/13 04:10:08;;;;;;;1.70;1.60;;;17.90;99.90;;;;;;5073422;28;20032;-75
2023/07/13 04:12:34;;;;;;;2.58;2.05;;;17.90;99.90;;;;;;5059638;28;20032;-76
2023/07/13 04:15:00;;;;;;;1.70;1.60;;;17.90;99.90;;;;;;5056750;28;20025;-76
2023/07/13 04:17:25;;;;;;;1.73;1.63;;;18.00;99.90;;;;;;5062905;28;20389;-75
2023/07/13 04:19:51;;;;;;;2.30;1.63;;;17.90;99.90;;;;;;5071522;28;20025;-75
2023/07/13 04:22:17;;;;;;;1.45;1.35;;;17.90;99.90;;;;;;5073010;28;20107;-76
2023/07/13 04:24:43;;;;;;;1.35;1.25;;;17.90;99.90;;;;;;5071989;28;20048;-75
2023/07/13 04:27:09;;;;;;;1.23;1.23;;;17.80;99.90;;;;;;5070165;28;20074;-77
2023/07/13 04:29:34;;;;;;;1.30;1.30;;;17.90;99.90;;;;;;5069036;28;20127;-76
2023/07/13 04:32:00;;;;;;;1.70;1.60;;;18.00;99.90;;;;;;5057856;28;20023;-77
2023/07/13 04:34:26;;;;;;;1.40;1.30;;;18.00;99.90;;;;;;5052312;28;20037;-76
2023/07/13 04:36:52;;;;;;;1.38;1.30;;;18.10;99.90;;;;;;5056858;28;20024;-77
2023/07/13 04:39:17;;;;;;;1.27;1.17;;;18.10;99.90;;;;;;5064467;28;20025;-76
2023/07/13 04:41:43;;;;;;;1.50;1.40;;;18.10;99.90;;;;;;5067356;28;20060;-77
2023/07/13 04:44:08;;;;;;;1.10;1.10;;;18.20;99.90;;;;;;5050269;28;20104;-75
2023/07/13 04:46:34;;;;;;;1.25;1.15;;;18.20;99.90;;;;;;5054663;28;20075;-75
2023/07/13 04:49:00;;;;;;;1.15;1.15;;;18.30;99.90;;;;;;5070898;28;20025;-75
2023/07/13 04:51:26;;;;;;;1.30;1.20;;;18.30;99.90;;;;;;5072342;28;20408;-75
2023/07/13 04:53:52;;;;;;;1.08;1.08;;;18.30;99.90;;;;;;5075149;28;20108;-76
2023/07/13 04:56:17;;;;;;;1.38;1.27;;;18.30;99.90;;;;;;5073810;28;20032;-76
2023/07/13 04:58:43;;;;;;;2.05;1.25;;;18.30;99.90;;;;;;5073874;28;20032;-76
2023/07/13 05:01:09;;;;;;;1.33;1.23;;;18.30;99.90;;;;;;5076239;28;20025;-76
2023/07/13 05:03:35;;;;;;;1.55;1.42;;;18.40;99.90;;;;;;5085698;28;20040;-77
2023/07/13 05:06:04;;;;;;;1.42;1.33;;;18.50;99.90;;;;;;5074181;28;20032;-76
2023/07/13 05:08:30;;;;;;;1.52;1.42;;;18.50;99.90;;;;;;5072510;28;20031;-75
2023/07/13 05:10:55;;;;;;;1.67;1.40;;;18.50;99.90;;;;;;5070445;28;20021;-75
2023/07/13 05:13:22;;;;;;;1.88;1.73;;;18.50;99.90;;;;;;5055878;28;20027;-75
2023/07/13 05:15:55;;;;;;;1.20;1.20;;;18.50;99.90;;;;;;5072121;28;20596;-74
2023/07/13 05:18:21;;;;;;;1.30;1.20;;;18.60;99.90;;;;;;5071590;28;20028;-77
2023/07/13 05:20:54;;;;;;;1.30;1.20;;;18.60;99.90;;;;;;5073869;28;20517;-75
2023/07/13 05:23:19;;;;;;;1.65;1.48;;;18.60;99.90;;;;;;5073916;28;20128;-75
2023/07/13 05:25:45;;;;;;;1.98;1.50;;;18.70;99.90;;;;;;5071499;28;20052;-75
2023/07/13 05:28:10;;;;;;;1.35;1.25;;;18.70;99.90;;;;;;5071561;28;20508;-76
2023/07/13 05:30:36;;;;;;;2.63;1.98;;;;;;;;;;5074779;28;20054;-75
2023/07/13 05:33:02;;;;;;;1.60;1.50;;;;;;;;;;5064042;28;20086;-75
2023/07/13 05:35:29;;;;;;;3.13;1.95;;;;;;;;;;5073244;28;20020;-74
2023/07/13 05:37:55;;;;;;;2.30;1.73;;;;;;;;;;5074674;28;20035;-76
2023/07/13 05:40:21;;;;;;;1.33;1.23;;;;;;;;;;5076548;28;20441;-75
2023/07/13 05:42:47;;;;;;;3.53;2.00;;;;;;;;;;5076330;28;20124;-74
2023/07/13 05:45:13;;;;;;;1.70;1.60;;;;;;;;;;5076378;28;20024;-76
2023/07/13 05:47:39;;;;;;;2.38;1.80;;;;;;;;;;5076506;28;20390;-75
2023/07/13 05:50:05;;;;;;;2.55;1.63;;;;;;;;;;5075675;28;20020;-76
2023/07/13 05:52:31;;;;;;;1.58;1.50;;;;;;;;;;5075652;28;20087;-77
2023/07/13 05:54:57;;;;;;;1.35;1.23;;;18.80;99.90;;;;;;5074996;28;20511;-76
2023/07/13 05:57:23;;;;;;;1.63;1.30;;;18.90;99.90;;;;;;5076993;28;20108;-76
2023/07/13 05:59:48;;;;;;;1.35;1.25;;;19.20;99.90;;;;;;5077890;28;20063;-77
2023/07/13 06:02:14;;;;;;;1.50;1.33;;;19.40;99.90;;;;;;5077045;28;20033;-76
2023/07/13 06:04:40;;;;;;;1.77;1.60;;;19.70;99.90;;;;;;5076874;28;20091;-76
2023/07/13 06:07:05;;;;;;;1.70;1.60;;;19.90;99.90;;;;;;5075783;28;20040;-76
2023/07/13 06:09:31;;;;;;;2.53;1.58;;;20.00;99.90;;;;;;5076657;28;20531;-77
2023/07/13 06:11:56;;;;;;;1.98;1.45;;;20.10;99.90;;;;;;5075839;28;20044;-77
2023/07/13 06:14:22;;;;;;;1.30;1.20;;;20.10;99.90;;;;;;5065016;28;20055;-76
2023/07/13 06:16:48;;;;;;;5.13;2.10;;;20.10;99.90;;;;;;5075701;28;20044;-77
2023/07/13 06:19:13;;;;;;;2.92;1.67;;;20.10;99.80;;;;;;5079601;28;20016;-76
2023/07/13 06:21:39;;;;;;;2.00;1.77;;;20.10;99.50;;;;;;5076152;28;20032;-77
2023/07/13 06:24:05;;;;;;;2.13;1.58;;;20.10;99.30;;;;;;5075875;28;20027;-76
2023/07/13 06:26:31;;;;;;;2.55;1.73;;;20.30;99.10;;;;;;5076344;28;20163;-76
2023/07/13 06:28:57;;;;;;;2.35;1.52;;;20.70;98.80;;;;;;5073116;28;20028;-76
2023/07/13 06:31:23;;;;;;;3.72;2.08;;;21.50;96.90;;;;;;5075711;28;20115;-76
2023/07/13 06:33:48;;;;;;;2.42;1.80;;;21.70;94.90;;;;;;5076691;28;20044;-78
2023/07/13 06:36:14;;;;;;;1.98;1.52;;;21.90;93.80;;;;;;5075048;28;20056;-77
2023/07/13 06:38:40;;;;;;;1.92;1.60;;;22.70;93.40;;;;;;5073515;28;20481;-79
2023/07/13 06:41:07;;;;;;;1.77;1.67;;;23.20;90.40;;;;;;5064693;28;20033;-77
2023/07/13 06:43:33;;;;;;;2.92;2.00;;;23.30;90.20;;;;;;5076713;28;20040;-76
2023/07/13 06:45:59;;;;;;;1.70;1.60;;;23.10;88.40;;;;;;5070839;28;20112;-77
2023/07/13 06:48:25;;;;;;;1.98;1.60;;;22.70;90.10;;;;;;5073369;28;20036;-76
2023/07/13 06:50:52;;;;;;;1.30;1.20;;;22.50;90.50;;;;;;5075167;28;20020;-76
2023/07/13 06:53:19;;;;;;;1.50;1.40;;;22.10;90.80;;;;;;5075603;28;20121;-77
2023/07/13 06:55:46;;;;;;;1.30;1.20;;;21.90;91.20;;;;;;5075983;28;20508;-77
2023/07/13 06:58:12;;;;;;;2.20;1.50;;;21.70;91.50;;;;;;5078225;28;20329;-77
2023/07/13 07:00:40;;;;;;;1.42;1.33;;;21.60;91.80;;;;;;5077462;28;20047;-77
2023/07/13 07:03:06;;;;;;;0.88;0.88;;;21.60;92.10;;;;;;5076976;28;20066;-77
2023/07/13 07:05:31;;;;;;;1.23;1.13;;;21.70;92.00;;;;;;5077417;28;20021;-77
2023/07/13 07:07:57;;;;;;;1.75;1.55;;;21.90;91.30;;;;;;5077037;28;20117;-77
2023/07/13 07:10:22;;;;;;;1.65;1.40;;;22.10;90.80;;;;;;5077178;28;20104;-77
2023/07/13 07:12:48;;;;;;;2.03;1.75;;;22.10;89.80;;;;;;5077201;28;20033;-77
2023/07/13 07:15:14;;;;;;;1.90;1.60;;;22.20;89.40;;;;;;5076548;28;20020;-76
2023/07/13 07:17:40;;;;;;;1.67;1.42;;;22.30;89.10;;;;;;5077107;28;20028;-76
2023/07/13 07:20:06;;;;;;;2.05;1.58;;;22.70;87.30;;;;;;5078013;28;20079;-77
2023/07/13 07:22:33;;;;;;;3.70;1.88;;;23.00;82.90;;;;;;5077337;28;20027;-77
2023/07/13 07:24:58;;;;;;;2.15;1.80;;;22.80;80.90;;;;;;5074682;28;20407;-76
2023/07/13 07:27:24;;;;;;;5.63;2.13;;;22.50;80.80;;;;;;5076354;28;20116;-76
2023/07/13 07:29:50;;;;;;;2.25;1.63;;;22.10;81.20;;;;;;5081556;28;20063;-76
2023/07/13 07:32:16;;;;;;;3.33;1.90;;;21.90;82.30;;;;;;5080916;28;20488;-78
2023/07/13 07:34:41;;;;;;;1.63;1.52;;;21.90;83.20;;;;;;5075588;28;20044;-76
2023/07/13 07:37:10;;;;;;;5.57;1.65;;;21.80;84.00;;;;;;5077029;28;20107;-77
2023/07/13 07:39:36;;;;;;;1.55;1.45;;;21.70;84.20;;;;;;5075169;28;20032;-77
2023/07/13 07:42:02;;;;;;;1.98;1.42;;;21.80;84.60;;;;;;5068405;28;20032;-77
2023/07/13 07:44:28;;;;;;;2.95;1.67;;;21.80;84.40;;;;;;5077202;28;20476;-77
2023/07/13 07:46:54;;;;;;;2.47;1.63;;;21.90;83.80;;;;;;5080040;28;20024;-76
2023/07/13 07:49:19;;;;;;;3.58;1.90;;;21.80;83.30;;;;;;5076974;28;20496;-77
2023/07/13 07:51:45;;;;;;;4.80;1.90;;;21.70;82.80;;;;;;5076692;28;20033;-77
2023/07/13 07:54:11;;;;;;;7.10;2.30;;;21.70;82.90;;;;;;5077413;28;20040;-76
2023/07/13 07:56:37;;;;;;;5.22;2.22;;;21.50;82.10;;;;;;5077443;28;20034;-77
2023/07/13 07:59:02;;;;;;;2.63;1.60;;;21.20;83.10;;;;;;5078998;28;20028;-76
2023/07/13 08:01:28;;;;;;;2.85;1.85;;;21.10;84.50;;;;;;5078325;28;20219;-75
2023/07/13 08:03:54;;;;;;;2.30;1.70;;;20.90;84.70;;;;;;5076321;28;20029;-75
2023/07/13 08:06:19;;;;;;;2.75;2.35;;;20.80;85.00;;;;;;5078254;28;20435;-74
2023/07/13 08:08:45;;;;;;;5.40;1.98;;;20.70;84.50;;;;;;5078935;28;20073;-76
2023/07/13 08:11:11;;;;;;;3.05;2.42;;;20.50;84.60;;;;;;5074443;28;20020;-76
2023/07/13 08:13:37;;;;;;;2.30;2.10;;;20.30;85.50;;;;;;5074166;28;20042;-76
2023/07/13 08:16:05;;;;;;;2.75;2.10;;;20.40;86.50;;;;;;5077647;28;20024;-76
2023/07/13 08:18:31;;;;;;;3.55;1.85;;;20.40;86.10;;;;;;5076737;28;20040;-76
2023/07/13 08:20:58;;;;;;;2.80;1.75;;;;;;;;;;5072482;28;20041;-77
2023/07/13 08:23:24;;;;;;;2.80;1.90;;;;;;;;;;5058604;28;20472;-76
2023/07/13 08:25:53;;;;;;;3.05;1.90;;;20.20;82.70;;;;;;5067840;28;20029;-74
2023/07/13 08:28:22;;;;;;;1.70;1.50;;;20.20;83.50;;;;;;5058649;28;20123;-75
2023/07/13 08:30:48;;;;;;;5.93;1.85;;;20.20;83.50;;;;;;5059083;28;20087;-74
2023/07/13 08:33:18;;;;;;;1.85;1.38;;;20.10;82.30;;;;;;5060219;28;20013;-75
2023/07/13 08:35:48;;;;;;;3.38;1.42;;;20.00;82.80;;;;;;5066762;28;20058;-74
2023/07/13 08:38:14;;;;;;;4.05;2.13;;;19.90;83.90;;;;;;5077609;28;20037;-75
2023/07/13 08:40:41;;;;;;;3.25;1.70;;;19.80;83.70;;;;;;5075912;28;20031;-74
2023/07/13 08:43:20;;;;;;;5.47;2.03;;;19.80;84.10;;;;;;5053913;28;20040;-74
2023/07/13 08:46:14;;;;;;;4.10;1.90;;;19.90;83.50;;;;;;5063060;28;20024;-75
2023/07/13 08:48:48;;;;;;;2.67;1.58;;;19.90;82.80;;;;;;5075494;28;20123;-75
2023/07/13 08:51:35;;;;;;;3.25;1.35;;;19.90;82.70;;;;;;5077265;28;20021;-76
2023/07/13 08:54:18;;;;;;;3.88;1.77;;;20.00;80.40;;;;;;5075017;28;20028;-76
2023/07/13 08:56:47;;;;;;;2.22;1.17;;;20.10;78.30;;;;;;5075377;28;20024;-76
2023/07/13 08:59:16;;;;;;;2.08;1.40;;;20.20;76.10;;;;;;5076901;28;20031;-75
2023/07/13 09:02:10;;;;;;;1.83;1.40;;;20.40;75.80;;;;;;5074931;28;20053;-75
2023/07/13 09:04:59;;;;;;;2.83;1.48;;;20.60;72.80;;;;;;5073312;28;20020;-75
2023/07/13 09:07:58;;;;;;;4.10;1.52;;;20.60;71.10;;;;;;5068181;28;20037;-74
2023/07/13 09:10:29;;;;;;;1.63;1.52;;;20.60;71.80;;;;;;5075715;28;20040;-75
2023/07/13 09:13:18;;;;;;;1.48;1.15;;;20.60;71.10;;;;;;5078077;28;20024;-76
2023/07/13 09:15:45;;;;;;;3.03;1.60;;;20.60;70.40;;;;;;5076338;28;20021;-76
2023/07/13 09:18:18;;;;;;;2.05;1.30;;;20.60;70.50;;;;;;5075829;28;20033;-75
2023/07/13 09:21:07;;;;;;;2.25;0.90;;;20.80;70.10;;;;;;5075799;28;20071;-76
2023/07/13 09:23:36;;;;;;;2.85;1.58;;;20.90;70.00;;;;;;5076365;28;20032;-75
2023/07/13 09:26:23;;;;;;;1.40;1.30;;;21.00;67.30;;;;;;5074095;28;20074;-74
2023/07/13 09:29:09;;;;;;;2.45;1.42;;;21.10;67.40;;;;;;5074092;28;20033;-76
2023/07/13 09:31:44;;;;;;;1.42;0.88;;;21.30;67.20;;;;;;5077025;28;20535;-74
2023/07/13 09:34:12;;;;;;;1.30;0.95;;;21.50;67.20;;;;;;5075254;28;20024;-76
2023/07/13 09:36:38;;;;;;;1.20;1.00;;;21.70;65.70;;;;;;5083608;28;20024;-75
2023/07/13 09:39:21;;;;;;;1.70;1.00;;;21.90;64.40;;;;;;5072945;28;20037;-76
2023/07/13 09:42:03;;;;;;;1.48;1.17;;;21.90;63.70;;;;;;5073859;28;20029;-76
2023/07/13 09:44:33;;;;;;;1.10;1.00;;;21.90;63.10;;;;;;5074578;28;20024;-76
2023/07/13 09:46:59;;;;;;;3.25;1.10;;;21.90;63.00;;;;;;5075825;28;20039;-76
2023/07/13 09:49:26;;;;;;;1.83;1.58;;;21.80;63.40;;;;;;5073083;28;20036;-77
2023/07/13 09:52:05;;;;;;;1.63;1.10;;;21.80;64.80;;;;;;5074378;28;20025;-76
2023/07/13 09:54:35;;;;;;;0.90;0.90;;;22.00;64.50;;;;;;5071542;28;20031;-76
2023/07/13 09:57:02;;;;;;;4.38;1.20;;;22.40;63.60;;;;;;5074805;28;20482;-76
2023/07/13 09:59:34;;;;;;;2.53;1.10;;;22.70;61.50;;;;;;5074686;28;20059;-76
2023/07/13 10:02:00;;;;;;;1.98;1.40;;;22.80;60.40;;;;;;5053418;28;20024;-76
2023/07/13 10:04:35;;;;;;;2.45;1.00;;;23.00;61.10;;;;;;5050772;28;20029;-75
2023/07/13 10:07:11;;;;;;;1.45;1.00;;;23.20;59.50;;;;;;5052744;28;20155;-75
2023/07/13 10:09:38;;;;;;;0.63;0.63;;;23.40;59.10;;;;;;5069559;28;20025;-75
2023/07/13 10:12:13;;;;;;;2.00;0.90;;;23.70;58.80;;;;;;5064496;28;20029;-76
2023/07/13 10:14:39;;;;;;;1.05;0.90;;;24.00;58.00;;;;;;5072796;28;20508;-75
2023/07/13 10:17:12;;;;;;;1.60;0.90;;;24.20;55.60;;;;;;5076116;28;20024;-75
2023/07/13 10:19:38;;;;;;;2.95;1.55;;;24.50;55.40;;;;;;5073730;28;20024;-76
2023/07/13 10:22:37;;;;;;;2.25;1.20;;;24.90;54.30;;;;;;5081203;28;20050;-76
2023/07/13 10:25:11;;;;;;;2.25;0.75;;;25.30;52.90;;;;;;5075998;28;20052;-76
2023/07/13 10:27:36;;;;;;;0.95;0.90;;;25.50;52.30;;;;;;5075775;28;20029;-77
2023/07/13 10:30:29;;;;;;;4.82;1.38;;;25.60;51.80;;;;;;5076176;28;20029;-76
2023/07/13 10:32:59;;;;;;;1.75;1.05;;;25.70;50.90;;;;;;5078112;28;20027;-76
2023/07/13 10:35:28;;;;;;;2.20;1.30;;;25.60;51.40;;;;;;5076125;28;20024;-75
2023/07/13 10:38:07;;;;;;;2.05;1.23;;;25.50;51.60;;;;;;5075550;28;20024;-75
2023/07/13 10:40:43;;;;;;;1.55;1.25;;;25.60;52.20;;;;;;5067343;28;20044;-76
2023/07/13 10:43:22;;;;;;;1.48;1.00;;;25.70;52.30;;;;;;5054886;28;20386;-76
2023/07/13 10:45:49;;;;;;;1.30;0.93;;;26.10;51.90;;;;;;5055988;28;20476;-76
2023/07/13 10:48:16;;;;;;;2.35;1.00;;;26.20;51.60;;;;;;5075276;28;20028;-75
2023/07/13 10:50:45;;;;;;;0.77;0.77;;;26.20;51.70;;;;;;5075315;28;20107;-75
2023/07/13 10:53:28;;;;;;;1.10;1.00;;;26.40;51.90;;;;;;5072813;28;20077;-76
2023/07/13 10:56:00;;;;;;;2.42;1.70;;;26.60;51.60;;;;;;5074514;28;20513;-75
2023/07/13 10:58:43;;;;;;;2.83;1.85;;;26.60;50.90;;;;;;5075837;28;20063;-75
2023/07/13 11:01:15;;;;;;;2.05;1.30;;;26.90;51.10;;;;;;5062275;28;20041;-76
2023/07/13 11:03:43;;;;;;;1.40;1.30;;;27.10;50.10;;;;;;5069203;28;20028;-76
2023/07/13 11:06:14;;;;;;;2.55;1.52;;;26.80;50.10;;;;;;5074110;28;20024;-76
2023/07/13 11:08:43;;;;;;;;;;;26.40;50.90;;;;;;5075114;28;20127;-76
2023/07/13 11:11:33;;;;;;;2.63;1.13;;;26.10;52.10;;;;;;5072654;28;19917;-76
2023/07/13 11:14:05;;;;;;;2.13;1.27;;;26.20;52.90;;;;;;5068877;28;20111;-75
2023/07/13 11:16:46;;;;;;;2.70;1.40;;;26.20;52.20;;;;;;5076164;28;20385;-79
2023/07/13 11:19:17;;;;;;;2.72;1.55;;;26.10;52.70;;;;;;5069394;28;20154;-77
2023/07/13 11:22:02;;;;;;;1.33;1.13;;;26.60;52.50;;;;;;5075536;28;20032;-76
2023/07/13 11:24:47;;;;;;;5.00;2.15;;;26.80;51.20;;;;;;5074718;28;20035;-76
2023/07/13 11:27:40;;;;;;;4.03;1.70;;;26.70;50.80;;;;;;5073589;28;20390;-75
2023/07/13 11:30:30;;;;;;;2.35;1.27;;;26.20;51.50;;;;;;5071098;28;20381;-76
2023/07/13 11:33:27;;;;;;;1.63;1.17;;;26.00;53.40;;;;;;5073016;28;20036;-76
2023/07/13 11:36:02;;;;;;;1.92;1.30;;;26.00;53.70;;;;;;5072301;28;20404;-75
2023/07/13 11:38:28;;;;;;;3.78;1.33;;;26.20;52.80;;;;;;5071546;28;20025;-75
2023/07/13 11:40:55;;;;;;;2.20;1.30;;;26.20;51.50;;;;;;5070687;28;20146;-75
2023/07/13 11:43:23;;;;;;;1.15;0.93;;;26.10;50.80;;;;;;5072641;28;20025;-77
2023/07/13 11:45:49;;;;;;;3.22;1.23;;;26.20;49.30;;;;;;5070558;28;20021;-76
2023/07/13 11:48:37;;;;;;;1.63;1.13;;;25.90;49.90;;;;;;5072657;28;20406;-75
2023/07/13 11:51:07;;;;;;;0.90;0.85;;;25.70;48.70;;;;;;5072582;28;20119;-75
2023/07/13 11:53:46;;;;;;;1.35;1.20;;;25.60;47.90;;;;;;5072374;28;20028;-74
2023/07/13 11:56:12;;;;;;;1.23;1.08;;;25.50;48.30;;;;;;5070903;28;20028;-75
2023/07/13 11:58:38;;;;;;;1.63;1.20;;;25.70;48.70;;;;;;5071304;28;20039;-75
2023/07/13 12:01:04;;;;;;;4.38;1.65;;;25.70;48.30;;;;;;5072631;28;20029;-75
2023/07/13 12:03:33;;;;;;;1.77;1.10;;;25.70;48.50;;;;;;5064764;28;21288;-75
2023/07/13 12:06:08;;;;;;;1.40;1.10;;;25.90;48.90;;;;;;5052065;28;20025;-76
2023/07/13 12:08:40;;;;;;;1.25;1.10;;;26.10;49.50;;;;;;5072297;28;20035;-75
2023/07/13 12:11:15;;;;;;;1.35;0.80;;;26.50;49.40;;;;;;5064801;28;20059;-74
2023/07/13 12:13:40;;;;;;;0.82;0.82;;;26.90;48.90;;;;;;5067710;28;20112;-75
2023/07/13 12:16:29;;;;;;;4.05;1.55;;;27.20;48.60;;;;;;5071863;28;20099;-77
2023/07/13 12:18:56;;;;;;;1.27;1.10;;;27.00;48.80;;;;;;5067260;28;20025;-75
2023/07/13 12:21:30;;;;;;;2.83;1.00;;;26.60;49.30;;;;;;5054398;28;20110;-74
2023/07/13 12:23:56;;;;;;;1.05;0.95;;;26.40;50.40;;;;;;5061497;28;20028;-75
2023/07/13 12:26:22;;;;;;;2.20;1.10;;;26.40;50.10;;;;;;5072182;28;20100;-76
2023/07/13 12:28:56;;;;;;;1.55;1.13;;;26.50;50.20;;;;;;5072289;28;20604;-76
2023/07/13 12:31:36;;;;;;;1.25;1.13;;;;;;;;;;5072505;28;20617;-76
2023/07/13 12:34:11;;;;;;;1.90;1.15;;;;;;;;;;5072161;28;20035;-75
2023/07/13 12:36:42;;;;;;;2.33;1.33;;;27.40;48.70;;;;;;5072897;28;20054;-74
2023/07/13 12:39:27;;;;;;;2.92;1.15;;;27.50;49.50;;;;;;5074813;28;20093;-76
2023/07/13 12:41:54;;;;;;;2.88;1.25;;;27.50;49.00;;;;;;5073669;28;20036;-75
2023/07/13 12:44:28;;;;;;;0.80;0.80;;;27.30;49.80;;;;;;5071014;28;20029;-76
2023/07/13 12:47:04;;;;;;;1.90;1.30;;;27.30;50.20;;;;;;5071423;28;20118;-76
2023/07/13 12:49:34;;;;;;;1.85;1.15;;;27.20;49.70;;;;;;5072020;28;20052;-76
2023/07/13 12:52:03;;;;;;;1.80;1.42;;;27.10;50.40;;;;;;5072811;28;20012;-76
2023/07/13 12:54:29;;;;;;;3.10;1.40;;;27.20;49.70;;;;;;5072753;28;20132;-76
2023/07/13 12:56:58;;;;;;;1.60;1.20;;;27.20;49.70;;;;;;5071632;28;20453;-74
2023/07/13 12:59:27;;;;;;;0.90;0.90;;;27.20;50.60;;;;;;5071702;28;20141;-74
2023/07/13 13:01:53;;;;;;;0.95;0.95;;;27.60;50.20;;;;;;5071857;28;20031;-75
2023/07/13 13:04:22;;;;;;;1.15;1.05;;;28.00;49.60;;;;;;5070909;28;20020;-76